sensor_id;sensor_type;location;lat;lon;timestamp;P1;durP1;ratioP1;P2;durP2;ratioP2
49812;SDS011;35706;52.100;5.056;2023-05-10T00:00:28;51.30;;;28.17;;
49812;SDS011;35706;52.100;5.056;2023-05-10T00:01:28;51.78;;;27.92;;
49812;SDS011;35706;52.100;5.056;2023-05-10T00:02:28;57.03;;;29.85;;
49812;SDS011;35706;52.100;5.056;2023-05-10T00:03:29;59.85;;;30.42;;
49812;SDS011;35706;52.100;5.056;2023-05-10T00:04:29;55.00;;;28.48;;
49812;SDS011;35706;52.100;5.056;2023-05-10T00:05:29;55.13;;;29.42;;
49812;SDS011;35706;52.100;5.056;2023-05-10T00:06:30;54.90;;;28.60;;
49812;SDS011;35706;52.100;5.056;2023-05-10T00:07:31;54.67;;;29.05;;
49812;SDS011;35706;52.100;5.056;2023-05-10T00:08:31;50.10;;;27.48;;
49812;SDS011;35706;52.100;5.056;2023-05-10T00:09:32;56.10;;;28.30;;
49812;SDS011;35706;52.100;5.056;2023-05-10T00:10:32;59.70;;;30.00;;
49812;SDS011;35706;52.100;5.056;2023-05-10T00:11:32;52.05;;;29.10;;
49812;SDS011;35706;52.100;5.056;2023-05-10T00:12:33;56.42;;;29.90;;
49812;SDS011;35706;52.100;5.056;2023-05-10T00:13:33;53.33;;;28.05;;
49812;SDS011;35706;52.100;5.056;2023-05-10T00:14:33;50.05;;;28.02;;
49812;SDS011;35706;52.100;5.056;2023-05-10T00:15:34;56.22;;;29.60;;
49812;SDS011;35706;52.100;5.056;2023-05-10T00:16:34;56.17;;;28.25;;
49812;SDS011;35706;52.100;5.056;2023-05-10T00:17:34;52.90;;;29.75;;
49812;SDS011;35706;52.100;5.056;2023-05-10T00:18:35;51.50;;;29.02;;
49812;SDS011;35706;52.100;5.056;2023-05-10T00:19:35;56.53;;;28.77;;
49812;SDS011;35706;52.100;5.056;2023-05-10T00:20:35;54.80;;;29.50;;
49812;SDS011;35706;52.100;5.056;2023-05-10T00:21:36;57.85;;;29.13;;
49812;SDS011;35706;52.100;5.056;2023-05-10T00:22:36;56.75;;;29.85;;
49812;SDS011;35706;52.100;5.056;2023-05-10T00:23:36;57.47;;;28.98;;
49812;SDS011;35706;52.100;5.056;2023-05-10T00:24:37;52.80;;;29.33;;
49812;SDS011;35706;52.100;5.056;2023-05-10T00:25:37;53.83;;;28.13;;
49812;SDS011;35706;52.100;5.056;2023-05-10T00:26:38;52.03;;;28.40;;
49812;SDS011;35706;52.100;5.056;2023-05-10T00:27:38;61.55;;;30.75;;
49812;SDS011;35706;52.100;5.056;2023-05-10T00:28:38;57.92;;;30.48;;
49812;SDS011;35706;52.100;5.056;2023-05-10T00:29:38;59.42;;;29.42;;
49812;SDS011;35706;52.100;5.056;2023-05-10T00:30:39;58.70;;;30.40;;
49812;SDS011;35706;52.100;5.056;2023-05-10T00:31:39;54.00;;;29.05;;
49812;SDS011;35706;52.100;5.056;2023-05-10T00:32:39;57.42;;;29.88;;
49812;SDS011;35706;52.100;5.056;2023-05-10T00:33:40;61.15;;;29.45;;
49812;SDS011;35706;52.100;5.056;2023-05-10T00:34:40;53.55;;;29.95;;
49812;SDS011;35706;52.100;5.056;2023-05-10T00:35:40;58.55;;;29.85;;
49812;SDS011;35706;52.100;5.056;2023-05-10T00:36:41;58.40;;;30.08;;
49812;SDS011;35706;52.100;5.056;2023-05-10T00:37:41;57.38;;;28.52;;
49812;SDS011;35706;52.100;5.056;2023-05-10T00:38:42;56.22;;;29.65;;
49812;SDS011;35706;52.100;5.056;2023-05-10T00:39:42;61.00;;;30.45;;
49812;SDS011;35706;52.100;5.056;2023-05-10T00:40:42;63.75;;;31.52;;
49812;SDS011;35706;52.100;5.056;2023-05-10T00:41:43;66.72;;;31.85;;
49812;SDS011;35706;52.100;5.056;2023-05-10T00:42:44;67.90;;;31.08;;
49812;SDS011;35706;52.100;5.056;2023-05-10T00:43:44;70.07;;;31.38;;
49812;SDS011;35706;52.100;5.056;2023-05-10T00:44:44;70.78;;;33.10;;
49812;SDS011;35706;52.100;5.056;2023-05-10T00:45:46;64.38;;;30.10;;
49812;SDS011;35706;52.100;5.056;2023-05-10T00:46:47;68.40;;;31.55;;
49812;SDS011;35706;52.100;5.056;2023-05-10T00:47:49;72.70;;;31.90;;
49812;SDS011;35706;52.100;5.056;2023-05-10T00:48:50;75.93;;;32.40;;
49812;SDS011;35706;52.100;5.056;2023-05-10T00:49:50;81.38;;;33.28;;
49812;SDS011;35706;52.100;5.056;2023-05-10T00:50:51;69.93;;;32.20;;
49812;SDS011;35706;52.100;5.056;2023-05-10T00:51:52;68.53;;;30.88;;
49812;SDS011;35706;52.100;5.056;2023-05-10T00:52:52;103.47;;;32.92;;
49812;SDS011;35706;52.100;5.056;2023-05-10T00:53:53;75.35;;;33.08;;
49812;SDS011;35706;52.100;5.056;2023-05-10T00:54:53;82.18;;;33.85;;
49812;SDS011;35706;52.100;5.056;2023-05-10T00:55:55;72.82;;;32.95;;
49812;SDS011;35706;52.100;5.056;2023-05-10T00:56:56;83.07;;;33.50;;
49812;SDS011;35706;52.100;5.056;2023-05-10T00:57:56;75.95;;;32.97;;
49812;SDS011;35706;52.100;5.056;2023-05-10T00:58:57;75.38;;;32.83;;
49812;SDS011;35706;52.100;5.056;2023-05-10T00:59:57;77.22;;;32.40;;
49812;SDS011;35706;52.100;5.056;2023-05-10T01:00:59;78.30;;;32.80;;
49812;SDS011;35706;52.100;5.056;2023-05-10T01:02:01;76.90;;;32.42;;
49812;SDS011;35706;52.100;5.056;2023-05-10T01:03:01;77.45;;;33.67;;
49812;SDS011;35706;52.100;5.056;2023-05-10T01:04:02;72.97;;;32.17;;
49812;SDS011;35706;52.100;5.056;2023-05-10T01:05:03;73.72;;;33.10;;
49812;SDS011;35706;52.100;5.056;2023-05-10T01:06:05;76.72;;;33.25;;
49812;SDS011;35706;52.100;5.056;2023-05-10T01:07:05;75.80;;;32.47;;
49812;SDS011;35706;52.100;5.056;2023-05-10T01:08:06;74.18;;;31.95;;
49812;SDS011;35706;52.100;5.056;2023-05-10T01:09:08;77.38;;;32.75;;
49812;SDS011;35706;52.100;5.056;2023-05-10T01:10:09;69.70;;;30.50;;
49812;SDS011;35706;52.100;5.056;2023-05-10T01:11:10;76.18;;;32.38;;
49812;SDS011;35706;52.100;5.056;2023-05-10T01:12:11;72.13;;;30.65;;
49812;SDS011;35706;52.100;5.056;2023-05-10T01:13:12;71.18;;;30.80;;
49812;SDS011;35706;52.100;5.056;2023-05-10T01:14:12;67.75;;;30.75;;
49812;SDS011;35706;52.100;5.056;2023-05-10T01:15:13;72.43;;;31.48;;
49812;SDS011;35706;52.100;5.056;2023-05-10T01:16:15;68.78;;;31.10;;
49812;SDS011;35706;52.100;5.056;2023-05-10T01:17:16;73.95;;;31.55;;
49812;SDS011;35706;52.100;5.056;2023-05-10T01:18:17;76.57;;;32.38;;
49812;SDS011;35706;52.100;5.056;2023-05-10T01:19:24;75.10;;;31.33;;
49812;SDS011;35706;52.100;5.056;2023-05-10T01:20:26;74.75;;;31.08;;
49812;SDS011;35706;52.100;5.056;2023-05-10T01:21:38;71.80;;;30.17;;
49812;SDS011;35706;52.100;5.056;2023-05-10T01:24:09;69.88;;;28.67;;
49812;SDS011;35706;52.100;5.056;2023-05-10T01:34:23;85.40;;;31.98;;
49812;SDS011;35706;52.100;5.056;2023-05-10T01:35:47;80.07;;;31.63;;
49812;SDS011;35706;52.100;5.056;2023-05-10T01:38:16;74.80;;;28.73;;
49812;SDS011;35706;52.100;5.056;2023-05-10T01:39:24;82.00;;;31.83;;
49812;SDS011;35706;52.100;5.056;2023-05-10T01:40:30;87.00;;;32.22;;
49812;SDS011;35706;52.100;5.056;2023-05-10T01:41:51;89.25;;;32.33;;
49812;SDS011;35706;52.100;5.056;2023-05-10T01:43:03;92.78;;;34.22;;
49812;SDS011;35706;52.100;5.056;2023-05-10T01:44:15;85.72;;;32.05;;
49812;SDS011;35706;52.100;5.056;2023-05-10T01:45:41;93.72;;;32.78;;
49812;SDS011;35706;52.100;5.056;2023-05-10T01:47:10;89.57;;;31.95;;
49812;SDS011;35706;52.100;5.056;2023-05-10T01:48:14;90.47;;;32.55;;
49812;SDS011;35706;52.100;5.056;2023-05-10T01:49:19;94.82;;;33.78;;
49812;SDS011;35706;52.100;5.056;2023-05-10T01:50:26;95.45;;;31.75;;
49812;SDS011;35706;52.100;5.056;2023-05-10T01:51:31;92.28;;;32.25;;
49812;SDS011;35706;52.100;5.056;2023-05-10T01:52:47;95.32;;;34.65;;
49812;SDS011;35706;52.100;5.056;2023-05-10T01:53:54;95.72;;;32.58;;
49812;SDS011;35706;52.100;5.056;2023-05-10T01:55:04;90.90;;;32.53;;
49812;SDS011;35706;52.100;5.056;2023-05-10T01:56:06;98.03;;;33.85;;
49812;SDS011;35706;52.100;5.056;2023-05-10T01:57:08;95.95;;;34.08;;
49812;SDS011;35706;52.100;5.056;2023-05-10T01:58:22;109.25;;;35.47;;
49812;SDS011;35706;52.100;5.056;2023-05-10T01:59:30;101.30;;;34.67;;
49812;SDS011;35706;52.100;5.056;2023-05-10T02:00:36;98.55;;;34.63;;
49812;SDS011;35706;52.100;5.056;2023-05-10T02:01:42;104.18;;;34.95;;
49812;SDS011;35706;52.100;5.056;2023-05-10T02:02:46;113.80;;;37.45;;
49812;SDS011;35706;52.100;5.056;2023-05-10T02:03:49;108.47;;;34.80;;
49812;SDS011;35706;52.100;5.056;2023-05-10T02:04:51;119.57;;;38.08;;
49812;SDS011;35706;52.100;5.056;2023-05-10T02:05:55;123.32;;;37.72;;
49812;SDS011;35706;52.100;5.056;2023-05-10T02:06:57;121.00;;;38.72;;
49812;SDS011;35706;52.100;5.056;2023-05-10T02:07:57;115.20;;;37.50;;
49812;SDS011;35706;52.100;5.056;2023-05-10T02:09:01;113.05;;;37.65;;
49812;SDS011;35706;52.100;5.056;2023-05-10T02:10:06;111.10;;;37.22;;
49812;SDS011;35706;52.100;5.056;2023-05-10T02:11:08;113.70;;;37.17;;
49812;SDS011;35706;52.100;5.056;2023-05-10T02:12:11;106.68;;;35.25;;
49812;SDS011;35706;52.100;5.056;2023-05-10T02:13:13;113.85;;;38.63;;
49812;SDS011;35706;52.100;5.056;2023-05-10T02:14:15;116.43;;;38.60;;
49812;SDS011;35706;52.100;5.056;2023-05-10T02:15:20;110.50;;;37.65;;
49812;SDS011;35706;52.100;5.056;2023-05-10T02:16:23;117.00;;;37.50;;
49812;SDS011;35706;52.100;5.056;2023-05-10T02:17:26;110.15;;;38.13;;
49812;SDS011;35706;52.100;5.056;2023-05-10T02:18:28;110.68;;;36.78;;
49812;SDS011;35706;52.100;5.056;2023-05-10T02:19:31;110.57;;;39.00;;
49812;SDS011;35706;52.100;5.056;2023-05-10T02:20:32;102.32;;;36.92;;
49812;SDS011;35706;52.100;5.056;2023-05-10T02:21:34;105.57;;;39.70;;
49812;SDS011;35706;52.100;5.056;2023-05-10T02:22:35;102.65;;;38.22;;
49812;SDS011;35706;52.100;5.056;2023-05-10T02:23:36;103.90;;;38.55;;
49812;SDS011;35706;52.100;5.056;2023-05-10T02:24:37;102.20;;;39.58;;
49812;SDS011;35706;52.100;5.056;2023-05-10T02:25:39;105.28;;;39.13;;
49812;SDS011;35706;52.100;5.056;2023-05-10T02:26:41;101.65;;;38.92;;
49812;SDS011;35706;52.100;5.056;2023-05-10T02:27:43;100.18;;;39.08;;
49812;SDS011;35706;52.100;5.056;2023-05-10T02:28:44;94.05;;;37.53;;
49812;SDS011;35706;52.100;5.056;2023-05-10T02:29:46;95.43;;;38.45;;
49812;SDS011;35706;52.100;5.056;2023-05-10T02:30:47;102.50;;;39.88;;
49812;SDS011;35706;52.100;5.056;2023-05-10T02:31:47;104.00;;;41.03;;
49812;SDS011;35706;52.100;5.056;2023-05-10T02:32:49;100.15;;;39.38;;
49812;SDS011;35706;52.100;5.056;2023-05-10T02:33:50;99.82;;;41.60;;
49812;SDS011;35706;52.100;5.056;2023-05-10T02:34:51;99.03;;;39.50;;
49812;SDS011;35706;52.100;5.056;2023-05-10T02:35:52;98.50;;;38.67;;
49812;SDS011;35706;52.100;5.056;2023-05-10T02:36:54;99.45;;;40.08;;
49812;SDS011;35706;52.100;5.056;2023-05-10T02:37:56;93.97;;;38.50;;
49812;SDS011;35706;52.100;5.056;2023-05-10T02:38:58;100.68;;;41.17;;
49812;SDS011;35706;52.100;5.056;2023-05-10T02:40:00;93.97;;;39.40;;
49812;SDS011;35706;52.100;5.056;2023-05-10T02:41:03;96.20;;;40.28;;
49812;SDS011;35706;52.100;5.056;2023-05-10T02:42:05;94.60;;;38.75;;
49812;SDS011;35706;52.100;5.056;2023-05-10T02:43:06;99.10;;;39.92;;
49812;SDS011;35706;52.100;5.056;2023-05-10T02:44:12;103.82;;;42.10;;
49812;SDS011;35706;52.100;5.056;2023-05-10T02:45:17;96.25;;;39.80;;
49812;SDS011;35706;52.100;5.056;2023-05-10T02:46:20;94.68;;;39.13;;
49812;SDS011;35706;52.100;5.056;2023-05-10T02:47:21;106.88;;;41.38;;
49812;SDS011;35706;52.100;5.056;2023-05-10T02:48:21;105.85;;;41.47;;
49812;SDS011;35706;52.100;5.056;2023-05-10T02:49:22;109.38;;;40.95;;
49812;SDS011;35706;52.100;5.056;2023-05-10T02:50:22;108.95;;;41.58;;
49812;SDS011;35706;52.100;5.056;2023-05-10T02:51:28;106.13;;;40.85;;
49812;SDS011;35706;52.100;5.056;2023-05-10T02:52:36;103.55;;;41.00;;
49812;SDS011;35706;52.100;5.056;2023-05-10T02:53:40;103.65;;;41.53;;
49812;SDS011;35706;52.100;5.056;2023-05-10T02:54:44;111.20;;;40.83;;
49812;SDS011;35706;52.100;5.056;2023-05-10T02:55:49;106.25;;;41.80;;
49812;SDS011;35706;52.100;5.056;2023-05-10T02:56:57;112.30;;;41.22;;
49812;SDS011;35706;52.100;5.056;2023-05-10T02:58:01;105.32;;;42.00;;
49812;SDS011;35706;52.100;5.056;2023-05-10T02:59:02;106.00;;;41.15;;
49812;SDS011;35706;52.100;5.056;2023-05-10T03:00:03;109.72;;;43.28;;
49812;SDS011;35706;52.100;5.056;2023-05-10T03:01:04;108.97;;;40.65;;
49812;SDS011;35706;52.100;5.056;2023-05-10T03:02:04;109.40;;;41.22;;
49812;SDS011;35706;52.100;5.056;2023-05-10T03:03:05;120.25;;;42.15;;
49812;SDS011;35706;52.100;5.056;2023-05-10T03:04:06;117.15;;;41.85;;
49812;SDS011;35706;52.100;5.056;2023-05-10T03:05:07;116.63;;;41.63;;
49812;SDS011;35706;52.100;5.056;2023-05-10T03:06:07;113.60;;;41.15;;
49812;SDS011;35706;52.100;5.056;2023-05-10T03:07:08;118.00;;;41.65;;
49812;SDS011;35706;52.100;5.056;2023-05-10T03:08:08;113.82;;;40.72;;
49812;SDS011;35706;52.100;5.056;2023-05-10T03:09:09;114.35;;;40.42;;
49812;SDS011;35706;52.100;5.056;2023-05-10T03:10:12;111.97;;;40.33;;
49812;SDS011;35706;52.100;5.056;2023-05-10T03:12:33;123.78;;;41.72;;
49812;SDS011;35706;52.100;5.056;2023-05-10T03:14:03;109.28;;;41.05;;
49812;SDS011;35706;52.100;5.056;2023-05-10T03:15:25;111.53;;;40.67;;
49812;SDS011;35706;52.100;5.056;2023-05-10T03:16:45;111.93;;;39.75;;
49812;SDS011;35706;52.100;5.056;2023-05-10T03:19:06;112.85;;;40.25;;
49812;SDS011;35706;52.100;5.056;2023-05-10T03:20:18;101.80;;;39.55;;
49812;SDS011;35706;52.100;5.056;2023-05-10T03:21:22;117.30;;;39.75;;
49812;SDS011;35706;52.100;5.056;2023-05-10T03:22:37;109.47;;;39.53;;
49812;SDS011;35706;52.100;5.056;2023-05-10T03:23:59;109.18;;;39.03;;
49812;SDS011;35706;52.100;5.056;2023-05-10T03:25:07;107.13;;;39.58;;
49812;SDS011;35706;52.100;5.056;2023-05-10T03:26:17;106.50;;;38.05;;
49812;SDS011;35706;52.100;5.056;2023-05-10T03:27:20;107.28;;;39.92;;
49812;SDS011;35706;52.100;5.056;2023-05-10T03:28:22;106.85;;;40.85;;
49812;SDS011;35706;52.100;5.056;2023-05-10T03:29:25;101.72;;;37.97;;
49812;SDS011;35706;52.100;5.056;2023-05-10T03:30:26;107.13;;;39.60;;
49812;SDS011;35706;52.100;5.056;2023-05-10T03:31:28;108.65;;;38.63;;
49812;SDS011;35706;52.100;5.056;2023-05-10T03:32:28;103.63;;;38.95;;
49812;SDS011;35706;52.100;5.056;2023-05-10T03:33:29;105.88;;;37.67;;
49812;SDS011;35706;52.100;5.056;2023-05-10T03:34:29;105.25;;;36.90;;
49812;SDS011;35706;52.100;5.056;2023-05-10T03:35:31;102.10;;;36.63;;
49812;SDS011;35706;52.100;5.056;2023-05-10T03:36:31;106.95;;;38.38;;
49812;SDS011;35706;52.100;5.056;2023-05-10T03:37:32;107.53;;;38.20;;
49812;SDS011;35706;52.100;5.056;2023-05-10T03:38:32;106.47;;;38.22;;
49812;SDS011;35706;52.100;5.056;2023-05-10T03:39:32;112.20;;;39.72;;
49812;SDS011;35706;52.100;5.056;2023-05-10T03:40:33;114.15;;;39.45;;
49812;SDS011;35706;52.100;5.056;2023-05-10T03:41:33;110.88;;;38.50;;
49812;SDS011;35706;52.100;5.056;2023-05-10T03:42:33;104.88;;;38.17;;
49812;SDS011;35706;52.100;5.056;2023-05-10T03:43:34;109.85;;;40.42;;
49812;SDS011;35706;52.100;5.056;2023-05-10T03:44:34;113.97;;;39.45;;
49812;SDS011;35706;52.100;5.056;2023-05-10T03:45:35;110.60;;;40.42;;
49812;SDS011;35706;52.100;5.056;2023-05-10T03:46:35;107.80;;;37.55;;
49812;SDS011;35706;52.100;5.056;2023-05-10T03:47:35;105.57;;;37.10;;
49812;SDS011;35706;52.100;5.056;2023-05-10T03:48:36;100.60;;;38.58;;
49812;SDS011;35706;52.100;5.056;2023-05-10T03:49:36;106.05;;;38.78;;
49812;SDS011;35706;52.100;5.056;2023-05-10T03:50:36;100.13;;;37.38;;
49812;SDS011;35706;52.100;5.056;2023-05-10T03:51:37;98.55;;;36.65;;
49812;SDS011;35706;52.100;5.056;2023-05-10T03:52:37;92.40;;;34.95;;
49812;SDS011;35706;52.100;5.056;2023-05-10T03:53:39;97.72;;;37.20;;
49812;SDS011;35706;52.100;5.056;2023-05-10T03:54:39;96.38;;;36.60;;
49812;SDS011;35706;52.100;5.056;2023-05-10T03:55:39;110.45;;;38.78;;
49812;SDS011;35706;52.100;5.056;2023-05-10T03:56:39;103.43;;;37.03;;
49812;SDS011;35706;52.100;5.056;2023-05-10T03:57:40;104.47;;;37.35;;
49812;SDS011;35706;52.100;5.056;2023-05-10T03:58:40;102.10;;;37.20;;
49812;SDS011;35706;52.100;5.056;2023-05-10T03:59:40;106.20;;;39.40;;
49812;SDS011;35706;52.100;5.056;2023-05-10T04:00:41;100.78;;;39.10;;
49812;SDS011;35706;52.100;5.056;2023-05-10T04:01:43;92.45;;;34.70;;
49812;SDS011;35706;52.100;5.056;2023-05-10T04:02:44;98.50;;;37.47;;
49812;SDS011;35706;52.100;5.056;2023-05-10T04:03:44;94.55;;;37.03;;
49812;SDS011;35706;52.100;5.056;2023-05-10T04:04:44;91.15;;;33.17;;
49812;SDS011;35706;52.100;5.056;2023-05-10T04:05:45;91.57;;;35.83;;
49812;SDS011;35706;52.100;5.056;2023-05-10T04:06:45;87.30;;;34.75;;
49812;SDS011;35706;52.100;5.056;2023-05-10T04:07:45;89.43;;;33.45;;
49812;SDS011;35706;52.100;5.056;2023-05-10T04:08:47;84.93;;;34.03;;
49812;SDS011;35706;52.100;5.056;2023-05-10T04:09:47;83.30;;;35.75;;
49812;SDS011;35706;52.100;5.056;2023-05-10T04:10:47;86.82;;;33.65;;
49812;SDS011;35706;52.100;5.056;2023-05-10T04:11:47;86.88;;;33.58;;
49812;SDS011;35706;52.100;5.056;2023-05-10T04:12:48;90.43;;;36.15;;
49812;SDS011;35706;52.100;5.056;2023-05-10T04:13:48;92.80;;;37.97;;
49812;SDS011;35706;52.100;5.056;2023-05-10T04:14:48;86.85;;;33.88;;
49812;SDS011;35706;52.100;5.056;2023-05-10T04:15:48;88.30;;;35.33;;
49812;SDS011;35706;52.100;5.056;2023-05-10T04:16:49;85.13;;;34.65;;
49812;SDS011;35706;52.100;5.056;2023-05-10T04:17:49;81.03;;;33.08;;
49812;SDS011;35706;52.100;5.056;2023-05-10T04:18:50;83.07;;;35.00;;
49812;SDS011;35706;52.100;5.056;2023-05-10T04:19:50;83.45;;;34.22;;
49812;SDS011;35706;52.100;5.056;2023-05-10T04:20:53;79.00;;;33.10;;
49812;SDS011;35706;52.100;5.056;2023-05-10T04:21:53;75.72;;;34.63;;
49812;SDS011;35706;52.100;5.056;2023-05-10T04:22:53;82.68;;;36.00;;
49812;SDS011;35706;52.100;5.056;2023-05-10T04:23:54;85.93;;;37.00;;
49812;SDS011;35706;52.100;5.056;2023-05-10T04:24:54;83.72;;;36.40;;
49812;SDS011;35706;52.100;5.056;2023-05-10T04:26:00;85.10;;;36.10;;
49812;SDS011;35706;52.100;5.056;2023-05-10T04:27:01;83.35;;;37.75;;
49812;SDS011;35706;52.100;5.056;2023-05-10T04:28:02;83.68;;;36.03;;
49812;SDS011;35706;52.100;5.056;2023-05-10T04:29:02;83.63;;;34.85;;
49812;SDS011;35706;52.100;5.056;2023-05-10T04:30:03;85.82;;;36.97;;
49812;SDS011;35706;52.100;5.056;2023-05-10T04:31:04;90.95;;;38.33;;
49812;SDS011;35706;52.100;5.056;2023-05-10T04:32:06;85.50;;;39.15;;
49812;SDS011;35706;52.100;5.056;2023-05-10T04:33:06;88.88;;;37.47;;
49812;SDS011;35706;52.100;5.056;2023-05-10T04:34:06;91.82;;;38.58;;
49812;SDS011;35706;52.100;5.056;2023-05-10T04:35:07;89.07;;;37.15;;
49812;SDS011;35706;52.100;5.056;2023-05-10T04:36:08;99.05;;;39.08;;
49812;SDS011;35706;52.100;5.056;2023-05-10T04:37:08;95.60;;;41.70;;
49812;SDS011;35706;52.100;5.056;2023-05-10T04:38:08;94.43;;;40.28;;
49812;SDS011;35706;52.100;5.056;2023-05-10T04:39:09;87.72;;;41.35;;
49812;SDS011;35706;52.100;5.056;2023-05-10T04:40:09;97.47;;;39.80;;
49812;SDS011;35706;52.100;5.056;2023-05-10T04:41:10;98.95;;;42.28;;
49812;SDS011;35706;52.100;5.056;2023-05-10T04:42:11;100.55;;;43.78;;
49812;SDS011;35706;52.100;5.056;2023-05-10T04:43:11;94.80;;;42.15;;
49812;SDS011;35706;52.100;5.056;2023-05-10T04:44:12;102.85;;;43.38;;
49812;SDS011;35706;52.100;5.056;2023-05-10T04:45:12;109.60;;;44.05;;
49812;SDS011;35706;52.100;5.056;2023-05-10T04:46:14;93.65;;;39.75;;
49812;SDS011;35706;52.100;5.056;2023-05-10T04:47:15;100.05;;;40.25;;
49812;SDS011;35706;52.100;5.056;2023-05-10T04:48:16;103.25;;;39.83;;
49812;SDS011;35706;52.100;5.056;2023-05-10T04:49:16;96.35;;;39.88;;
49812;SDS011;35706;52.100;5.056;2023-05-10T04:50:17;96.63;;;40.70;;
49812;SDS011;35706;52.100;5.056;2023-05-10T04:51:18;105.43;;;41.38;;
49812;SDS011;35706;52.100;5.056;2023-05-10T04:52:18;111.97;;;44.70;;
49812;SDS011;35706;52.100;5.056;2023-05-10T04:53:18;102.18;;;42.42;;
49812;SDS011;35706;52.100;5.056;2023-05-10T04:54:18;109.55;;;42.65;;
49812;SDS011;35706;52.100;5.056;2023-05-10T04:55:19;110.93;;;43.17;;
49812;SDS011;35706;52.100;5.056;2023-05-10T04:56:19;110.07;;;43.25;;
49812;SDS011;35706;52.100;5.056;2023-05-10T04:57:20;109.35;;;41.03;;
49812;SDS011;35706;52.100;5.056;2023-05-10T04:58:20;104.75;;;40.42;;
49812;SDS011;35706;52.100;5.056;2023-05-10T04:59:20;108.45;;;41.42;;
49812;SDS011;35706;52.100;5.056;2023-05-10T05:00:21;105.07;;;41.90;;
49812;SDS011;35706;52.100;5.056;2023-05-10T05:01:21;111.13;;;42.13;;
49812;SDS011;35706;52.100;5.056;2023-05-10T05:02:23;97.53;;;39.97;;
49812;SDS011;35706;52.100;5.056;2023-05-10T05:03:23;96.30;;;36.80;;
49812;SDS011;35706;52.100;5.056;2023-05-10T05:04:24;96.40;;;37.58;;
49812;SDS011;35706;52.100;5.056;2023-05-10T05:05:24;84.40;;;33.30;;
49812;SDS011;35706;52.100;5.056;2023-05-10T05:06:25;86.40;;;33.22;;
49812;SDS011;35706;52.100;5.056;2023-05-10T05:07:27;91.53;;;34.90;;
49812;SDS011;35706;52.100;5.056;2023-05-10T05:08:27;86.28;;;34.40;;
49812;SDS011;35706;52.100;5.056;2023-05-10T05:09:27;84.93;;;33.83;;
49812;SDS011;35706;52.100;5.056;2023-05-10T05:10:28;85.82;;;34.30;;
49812;SDS011;35706;52.100;5.056;2023-05-10T05:11:28;83.55;;;35.22;;
49812;SDS011;35706;52.100;5.056;2023-05-10T05:12:28;84.25;;;35.65;;
49812;SDS011;35706;52.100;5.056;2023-05-10T05:13:28;87.93;;;35.45;;
49812;SDS011;35706;52.100;5.056;2023-05-10T05:14:29;92.47;;;36.60;;
49812;SDS011;35706;52.100;5.056;2023-05-10T05:15:29;85.13;;;35.30;;
49812;SDS011;35706;52.100;5.056;2023-05-10T05:16:30;86.25;;;36.03;;
49812;SDS011;35706;52.100;5.056;2023-05-10T05:17:31;92.75;;;36.92;;
49812;SDS011;35706;52.100;5.056;2023-05-10T05:18:31;94.85;;;37.42;;
49812;SDS011;35706;52.100;5.056;2023-05-10T05:19:32;88.85;;;37.22;;
49812;SDS011;35706;52.100;5.056;2023-05-10T05:20:32;89.55;;;36.97;;
49812;SDS011;35706;52.100;5.056;2023-05-10T05:21:34;88.00;;;36.45;;
49812;SDS011;35706;52.100;5.056;2023-05-10T05:22:35;87.15;;;36.22;;
49812;SDS011;35706;52.100;5.056;2023-05-10T05:23:36;91.57;;;38.75;;
49812;SDS011;35706;52.100;5.056;2023-05-10T05:24:36;79.75;;;36.65;;
49812;SDS011;35706;52.100;5.056;2023-05-10T05:25:39;83.05;;;36.28;;
49812;SDS011;35706;52.100;5.056;2023-05-10T05:26:40;72.80;;;34.08;;
49812;SDS011;35706;52.100;5.056;2023-05-10T05:27:40;75.10;;;34.72;;
49812;SDS011;35706;52.100;5.056;2023-05-10T05:28:40;70.38;;;33.13;;
49812;SDS011;35706;52.100;5.056;2023-05-10T05:29:41;69.60;;;32.63;;
49812;SDS011;35706;52.100;5.056;2023-05-10T05:30:41;64.40;;;30.15;;
49812;SDS011;35706;52.100;5.056;2023-05-10T05:31:41;71.93;;;31.33;;
49812;SDS011;35706;52.100;5.056;2023-05-10T05:32:41;63.58;;;27.33;;
49812;SDS011;35706;52.100;5.056;2023-05-10T05:33:42;57.42;;;27.27;;
49812;SDS011;35706;52.100;5.056;2023-05-10T05:34:44;58.33;;;26.50;;
49812;SDS011;35706;52.100;5.056;2023-05-10T05:35:45;52.50;;;24.65;;
49812;SDS011;35706;52.100;5.056;2023-05-10T05:36:50;50.47;;;22.52;;
49812;SDS011;35706;52.100;5.056;2023-05-10T05:37:50;47.78;;;22.23;;
49812;SDS011;35706;52.100;5.056;2023-05-10T05:38:51;40.47;;;20.00;;
49812;SDS011;35706;52.100;5.056;2023-05-10T05:39:51;42.58;;;20.40;;
49812;SDS011;35706;52.100;5.056;2023-05-10T05:40:51;43.30;;;21.00;;
49812;SDS011;35706;52.100;5.056;2023-05-10T05:41:52;41.97;;;19.67;;
49812;SDS011;35706;52.100;5.056;2023-05-10T05:42:55;40.88;;;20.17;;
49812;SDS011;35706;52.100;5.056;2023-05-10T05:43:55;41.15;;;18.85;;
49812;SDS011;35706;52.100;5.056;2023-05-10T05:44:56;39.70;;;19.15;;
49812;SDS011;35706;52.100;5.056;2023-05-10T05:45:57;36.75;;;18.27;;
49812;SDS011;35706;52.100;5.056;2023-05-10T05:46:57;33.03;;;17.15;;
49812;SDS011;35706;52.100;5.056;2023-05-10T05:47:58;32.15;;;15.77;;
49812;SDS011;35706;52.100;5.056;2023-05-10T05:49:01;39.72;;;18.17;;
49812;SDS011;35706;52.100;5.056;2023-05-10T05:50:01;32.70;;;16.27;;
49812;SDS011;35706;52.100;5.056;2023-05-10T05:51:02;36.90;;;16.20;;
49812;SDS011;35706;52.100;5.056;2023-05-10T05:52:02;37.08;;;17.58;;
49812;SDS011;35706;52.100;5.056;2023-05-10T05:53:03;32.33;;;16.30;;
49812;SDS011;35706;52.100;5.056;2023-05-10T05:54:04;32.50;;;16.17;;
49812;SDS011;35706;52.100;5.056;2023-05-10T05:55:04;38.42;;;16.48;;
49812;SDS011;35706;52.100;5.056;2023-05-10T05:56:05;37.50;;;17.10;;
49812;SDS011;35706;52.100;5.056;2023-05-10T05:57:05;35.33;;;16.60;;
49812;SDS011;35706;52.100;5.056;2023-05-10T05:58:05;34.53;;;17.30;;
49812;SDS011;35706;52.100;5.056;2023-05-10T05:59:06;38.42;;;17.23;;
49812;SDS011;35706;52.100;5.056;2023-05-10T06:00:06;38.92;;;16.77;;
49812;SDS011;35706;52.100;5.056;2023-05-10T06:01:07;31.40;;;15.55;;
49812;SDS011;35706;52.100;5.056;2023-05-10T06:02:08;35.92;;;16.40;;
49812;SDS011;35706;52.100;5.056;2023-05-10T06:03:09;37.50;;;17.05;;
49812;SDS011;35706;52.100;5.056;2023-05-10T06:04:10;35.65;;;17.15;;
49812;SDS011;35706;52.100;5.056;2023-05-10T06:05:10;34.22;;;16.70;;
49812;SDS011;35706;52.100;5.056;2023-05-10T06:06:11;32.13;;;16.00;;
49812;SDS011;35706;52.100;5.056;2023-05-10T06:07:12;33.15;;;14.98;;
49812;SDS011;35706;52.100;5.056;2023-05-10T06:08:12;32.85;;;15.90;;
49812;SDS011;35706;52.100;5.056;2023-05-10T06:09:13;27.10;;;14.40;;
49812;SDS011;35706;52.100;5.056;2023-05-10T06:10:13;33.03;;;14.88;;
49812;SDS011;35706;52.100;5.056;2023-05-10T06:11:13;30.92;;;14.68;;
49812;SDS011;35706;52.100;5.056;2023-05-10T06:12:14;28.30;;;14.45;;
49812;SDS011;35706;52.100;5.056;2023-05-10T06:13:14;39.55;;;15.90;;
49812;SDS011;35706;52.100;5.056;2023-05-10T06:14:14;34.92;;;16.63;;
49812;SDS011;35706;52.100;5.056;2023-05-10T06:15:14;26.73;;;15.07;;
49812;SDS011;35706;52.100;5.056;2023-05-10T06:16:15;26.17;;;14.02;;